createdAt,value
2019-03-23T00:00:05.510Z,161.37
2019-03-23T00:02:34.354Z,165.50
2019-03-23T00:05:03.256Z,149.10
2019-03-23T00:07:32.220Z,161.20
2019-03-23T00:10:01.070Z,179.03
2019-03-23T00:12:29.906Z,171.67
2019-03-23T00:14:58.798Z,198.53
2019-03-23T00:17:27.643Z,193.23
2019-03-23T00:19:56.490Z,198.70
2019-03-23T00:22:25.386Z,180.07
2019-03-23T00:24:54.225Z,177.50
2019-03-23T00:27:23.106Z,168.10
2019-03-23T00:29:52.012Z,167.97
2019-03-23T00:32:20.858Z,174.40
2019-03-23T00:34:49.725Z,184.93
2019-03-23T00:37:18.616Z,163.77
2019-03-23T00:39:47.472Z,150.83
2019-03-23T00:42:18.175Z,154.90
2019-03-23T00:44:47.082Z,150.67
2019-03-23T00:47:15.927Z,116.83
2019-03-23T00:49:44.775Z,107.80
2019-03-23T00:52:13.678Z,98.83
2019-03-23T00:54:42.514Z,87.67
2019-03-23T00:57:11.355Z,92.87
2019-03-23T00:59:40.246Z,89.50
2019-03-23T01:02:09.091Z,84.93
2019-03-23T01:04:37.926Z,90.07
2019-03-23T01:07:06.820Z,123.80
2019-03-23T01:09:35.672Z,141.87
2019-03-23T01:12:04.606Z,152.70
2019-03-23T01:14:33.509Z,160.80
2019-03-23T01:17:02.358Z,202.20
2019-03-23T01:19:31.213Z,127.73
2019-03-23T01:22:00.115Z,129.80
2019-03-23T01:24:28.968Z,126.77
2019-03-23T01:26:57.822Z,131.70
2019-03-23T01:29:26.721Z,126.27
2019-03-23T01:31:55.570Z,114.10
2019-03-23T01:34:24.413Z,109.93
2019-03-23T01:37:02.456Z,105.50
2019-03-23T01:39:23.789Z,104.80
2019-03-23T01:41:52.657Z,106.70
2019-03-23T01:44:22.421Z,99.37
2019-03-23T01:46:51.283Z,85.43
2019-03-23T01:49:20.118Z,74.43
2019-03-23T01:51:49.008Z,80.60
2019-03-23T01:54:17.851Z,91.27
2019-03-23T01:56:46.676Z,95.07
2019-03-23T01:59:15.592Z,78.30
2019-03-23T02:01:44.449Z,94.40
2019-03-23T02:04:13.301Z,89.33
2019-03-23T02:06:42.178Z,85.77
2019-03-23T02:09:11.040Z,65.60
2019-03-23T02:11:39.869Z,79.33
2019-03-23T02:14:08.755Z,79.70
2019-03-23T02:16:37.611Z,78.60
2019-03-23T02:19:06.467Z,80.83
2019-03-23T02:21:35.402Z,79.17
2019-03-23T02:24:04.357Z,77.43
2019-03-23T02:26:33.186Z,63.53
2019-03-23T02:29:02.068Z,71.40
2019-03-23T02:31:30.911Z,65.00
2019-03-23T02:33:59.746Z,66.97
2019-03-23T02:36:28.645Z,68.27
2019-03-23T02:38:57.498Z,65.40
2019-03-23T02:41:26.361Z,67.40
2019-03-23T02:43:55.268Z,67.57
2019-03-23T02:46:24.133Z,60.37
2019-03-23T02:48:52.997Z,187.47
2019-03-23T02:51:21.900Z,196.63
2019-03-23T02:53:50.739Z,114.33
2019-03-23T02:56:19.596Z,82.53
2019-03-23T02:58:48.470Z,91.67
2019-03-23T03:01:17.316Z,81.23
2019-03-23T03:03:46.150Z,70.13
2019-03-23T03:06:15.059Z,73.83
2019-03-23T03:08:43.899Z,72.60
2019-03-23T03:11:12.736Z,76.30
2019-03-23T03:13:41.749Z,63.83
2019-03-23T03:16:10.587Z,71.37
2019-03-23T03:18:39.434Z,65.07
2019-03-23T03:21:08.323Z,72.57
2019-03-23T03:23:37.166Z,77.03
2019-03-23T03:26:05.999Z,79.37
2019-03-23T03:28:35.128Z,78.33
2019-03-23T03:31:03.979Z,75.67
2019-03-23T03:33:32.811Z,60.57
2019-03-23T03:36:01.714Z,63.83
2019-03-23T03:38:30.548Z,71.23
2019-03-23T03:40:59.396Z,79.07
2019-03-23T03:43:28.276Z,77.13
2019-03-23T03:45:57.106Z,83.43
2019-03-23T03:48:25.985Z,79.70
2019-03-23T03:50:54.926Z,70.53
2019-03-23T03:53:23.767Z,69.03
2019-03-23T03:55:52.603Z,76.43
2019-03-23T03:58:21.505Z,76.07
2019-03-23T04:00:50.366Z,79.93
2019-03-23T04:03:19.206Z,70.50
2019-03-23T04:05:48.092Z,66.87
2019-03-23T04:08:16.944Z,64.40
2019-03-23T04:10:45.789Z,68.00
2019-03-23T04:13:14.700Z,71.10
2019-03-23T04:15:43.547Z,73.40
2019-03-23T04:18:12.393Z,70.47
2019-03-23T04:20:41.307Z,85.90
2019-03-23T04:23:10.133Z,81.93
2019-03-23T04:25:38.988Z,71.77
2019-03-23T04:28:07.893Z,74.87
2019-03-23T04:30:36.744Z,77.60
2019-03-23T04:33:05.571Z,76.57
2019-03-23T04:35:34.505Z,75.40
2019-03-23T04:38:03.358Z,74.47
2019-03-23T04:40:32.186Z,68.40
2019-03-23T04:43:01.079Z,73.60
2019-03-23T04:45:29.934Z,69.77
2019-03-23T04:47:58.773Z,142.40
2019-03-23T04:50:28.514Z,159.43
2019-03-23T04:52:57.374Z,96.47
2019-03-23T04:55:26.205Z,77.90
2019-03-23T04:57:55.122Z,70.97
2019-03-23T05:00:23.973Z,65.17
2019-03-23T05:02:52.804Z,71.60
2019-03-23T05:05:21.698Z,73.60
2019-03-23T05:07:50.541Z,74.57
2019-03-23T05:10:19.377Z,74.73
2019-03-23T05:12:48.263Z,81.87
2019-03-23T05:15:17.106Z,84.40
2019-03-23T05:17:45.944Z,96.43
2019-03-23T05:20:31.775Z,93.37
2019-03-23T05:23:00.620Z,98.57
2019-03-23T05:25:30.366Z,106.60
2019-03-23T05:27:59.244Z,109.53
2019-03-23T05:30:28.084Z,113.17
2019-03-23T05:32:56.915Z,125.60
2019-03-23T05:35:25.829Z,133.37
2019-03-23T05:37:54.666Z,127.50
2019-03-23T05:40:23.533Z,115.90
2019-03-23T05:42:52.438Z,102.43
2019-03-23T05:45:21.269Z,109.50
2019-03-23T05:47:50.132Z,110.97
2019-03-23T05:50:19.005Z,108.70
2019-03-23T05:52:47.868Z,110.67
2019-03-23T05:55:16.724Z,105.77
2019-03-23T05:57:45.666Z,103.93
2019-03-23T06:00:16.178Z,89.30
2019-03-23T06:02:45.030Z,121.00
2019-03-23T06:05:13.957Z,128.80
2019-03-23T06:07:42.909Z,133.60
2019-03-23T06:10:12.073Z,122.37
2019-03-23T06:12:40.982Z,116.03
2019-03-23T06:15:09.826Z,98.20
2019-03-23T06:17:38.662Z,85.73
2019-03-23T06:20:09.783Z,89.50
2019-03-23T06:22:38.626Z,96.70
2019-03-23T06:25:07.882Z,89.50
2019-03-23T06:27:36.816Z,81.47
2019-03-23T06:30:08.551Z,88.03
2019-03-23T06:32:37.413Z,91.90
2019-03-23T06:35:06.995Z,91.73
2019-03-23T06:37:35.851Z,72.80
2019-03-23T06:40:09.929Z,74.83
2019-03-23T06:42:38.822Z,81.20
2019-03-23T06:45:11.375Z,77.30
2019-03-23T06:47:40.221Z,80.10
2019-03-23T06:50:11.024Z,80.97
2019-03-23T06:52:39.992Z,90.53
2019-03-23T06:55:10.459Z,78.37
2019-03-23T06:57:39.413Z,75.77
2019-03-23T07:00:16.188Z,66.90
2019-03-23T07:02:45.080Z,56.40
2019-03-23T07:05:14.117Z,66.23
2019-03-23T07:07:42.946Z,58.80
2019-03-23T07:10:12.925Z,51.43
2019-03-23T07:12:41.789Z,57.43
2019-03-23T07:15:19.878Z,55.87
2019-03-23T07:17:42.415Z,57.93
2019-03-23T07:20:14.764Z,59.33
2019-03-23T07:22:43.629Z,52.37
2019-03-23T07:25:12.639Z,52.10
2019-03-23T07:27:41.506Z,60.03
2019-03-23T07:30:15.382Z,51.50
2019-03-23T07:32:44.268Z,52.30
2019-03-23T07:35:14.068Z,57.90
2019-03-23T07:37:42.908Z,58.00
2019-03-23T07:40:13.407Z,60.03
2019-03-23T07:42:42.251Z,56.60
2019-03-23T07:45:15.351Z,54.73
2019-03-23T07:47:44.303Z,68.63
2019-03-23T07:50:14.460Z,77.93
2019-03-23T07:52:43.414Z,74.17
2019-03-23T07:55:15.865Z,70.83
2019-03-23T07:57:45.962Z,80.03
2019-03-23T08:00:19.957Z,75.23
2019-03-23T08:02:50.226Z,85.93
2019-03-23T08:05:19.311Z,86.23
2019-03-23T08:07:48.258Z,87.53
2019-03-23T08:10:28.853Z,77.43
2019-03-23T08:12:57.750Z,76.37
2019-03-23T08:15:26.704Z,81.97
2019-03-23T08:17:55.965Z,92.50
2019-03-23T08:20:25.283Z,76.97
2019-03-23T08:22:54.820Z,65.23
2019-03-23T08:25:23.659Z,65.43
2019-03-23T08:27:52.572Z,67.90
2019-03-23T08:30:21.426Z,65.07
2019-03-23T08:32:50.263Z,60.50
2019-03-23T08:35:19.155Z,64.33
2019-03-23T08:37:48.017Z,62.33
2019-03-23T08:40:16.883Z,69.87
2019-03-23T08:42:45.766Z,73.50
2019-03-23T08:45:14.624Z,69.80
2019-03-23T08:47:43.460Z,66.57
2019-03-23T08:50:13.580Z,66.47
2019-03-23T08:52:42.423Z,64.87
2019-03-23T08:55:11.265Z,61.47
2019-03-23T08:57:41.440Z,57.23
2019-03-23T09:00:11.208Z,53.30
2019-03-23T09:02:40.044Z,54.63
2019-03-23T09:05:09.346Z,60.55
2019-03-23T09:07:39.056Z,56.80
2019-03-23T09:10:08.556Z,59.90
2019-03-23T09:12:37.577Z,56.80
2019-03-23T09:15:08.495Z,55.57
2019-03-23T09:17:37.467Z,47.30
2019-03-23T09:20:09.181Z,50.73
2019-03-23T09:22:38.040Z,51.57
2019-03-23T09:25:07.375Z,58.07
2019-03-23T09:27:36.261Z,48.10
2019-03-23T09:30:10.781Z,51.93
2019-03-23T09:32:39.687Z,60.57
2019-03-23T09:35:08.692Z,54.43
2019-03-23T09:37:38.328Z,57.90
2019-03-23T09:40:11.035Z,50.53
2019-03-23T09:42:38.512Z,54.63
2019-03-23T09:45:08.366Z,56.73
2019-03-23T09:47:37.575Z,61.90
2019-03-23T09:50:09.310Z,56.27
2019-03-23T09:52:38.151Z,65.90
2019-03-23T09:55:11.194Z,62.40
2019-03-23T09:57:40.044Z,66.13
2019-03-23T10:00:11.391Z,58.77
2019-03-23T10:02:40.326Z,56.27
2019-03-23T10:05:09.252Z,56.53
2019-03-23T10:07:38.419Z,51.73
2019-03-23T10:10:07.900Z,52.77
2019-03-23T10:12:36.754Z,52.77
2019-03-23T10:15:08.001Z,36.00
2019-03-23T10:17:36.923Z,43.53
2019-03-23T10:20:08.238Z,33.80
2019-03-23T10:22:37.089Z,35.27
2019-03-23T10:25:06.752Z,35.97
2019-03-23T10:27:35.600Z,33.47
2019-03-23T10:30:07.007Z,37.53
2019-03-23T10:32:35.914Z,33.20
2019-03-23T10:35:07.053Z,37.73
2019-03-23T10:37:35.907Z,35.77
2019-03-23T10:40:07.510Z,30.80
2019-03-23T10:42:36.473Z,31.83
2019-03-23T10:45:07.593Z,31.57
2019-03-23T10:47:36.565Z,27.97
2019-03-23T10:50:06.262Z,29.23
2019-03-23T10:52:35.113Z,32.77
2019-03-23T10:55:07.725Z,28.07
2019-03-23T10:57:36.571Z,28.70
2019-03-23T11:00:11.787Z,28.37
2019-03-23T11:02:40.629Z,25.73
2019-03-23T11:05:09.893Z,31.17
2019-03-23T11:07:38.855Z,28.40
2019-03-23T11:10:10.739Z,24.27
2019-03-23T11:12:39.593Z,25.63
2019-03-23T11:15:09.435Z,29.27
2019-03-23T11:17:38.281Z,26.27
2019-03-23T11:20:09.914Z,25.67
2019-03-23T11:22:38.805Z,26.37
2019-03-23T11:25:08.579Z,23.77
2019-03-23T11:27:37.417Z,19.40
2019-03-23T11:30:08.143Z,18.00
2019-03-23T11:32:36.989Z,20.17
2019-03-23T11:35:08.163Z,19.73
2019-03-23T11:37:37.975Z,19.40
2019-03-23T11:40:09.809Z,24.03
2019-03-23T11:42:48.849Z,21.57
2019-03-23T11:45:10.504Z,19.87
2019-03-23T11:47:39.342Z,16.70
2019-03-23T11:50:09.705Z,20.03
2019-03-23T11:52:38.632Z,18.37
2019-03-23T11:55:08.589Z,21.30
2019-03-23T11:57:37.440Z,21.03
2019-03-23T12:00:12.687Z,22.47
2019-03-23T12:02:41.522Z,22.07
2019-03-23T12:05:11.275Z,26.97
2019-03-23T12:07:40.217Z,22.20
2019-03-23T12:10:11.472Z,15.80
2019-03-23T12:12:40.308Z,15.47
2019-03-23T12:15:12.099Z,23.70
2019-03-23T12:17:41.063Z,16.90
2019-03-23T12:20:11.723Z,16.47
2019-03-23T12:22:40.641Z,12.17
2019-03-23T12:25:09.896Z,17.57
2019-03-23T12:27:38.748Z,12.20
2019-03-23T12:30:13.384Z,13.50
2019-03-23T12:32:42.237Z,12.67
2019-03-23T12:35:11.185Z,13.33
2019-03-23T12:37:40.087Z,12.93
2019-03-23T12:40:09.827Z,14.40
2019-03-23T12:42:38.681Z,13.37
2019-03-23T12:45:08.689Z,11.33
2019-03-23T12:47:37.531Z,11.27
2019-03-23T12:50:10.615Z,14.13
2019-03-23T12:52:39.514Z,13.90
2019-03-23T12:55:08.661Z,16.30
2019-03-23T12:57:37.537Z,12.57
2019-03-23T13:00:14.919Z,11.90
2019-03-23T13:02:44.051Z,13.80
2019-03-23T13:05:12.893Z,12.60
2019-03-23T13:07:41.789Z,11.13
2019-03-23T13:10:13.508Z,13.23
2019-03-23T13:12:42.447Z,13.20
2019-03-23T13:15:13.146Z,16.47
2019-03-23T13:17:41.982Z,18.97
2019-03-23T13:20:11.564Z,14.00
2019-03-23T13:22:40.562Z,18.50
2019-03-23T13:25:09.998Z,16.37
2019-03-23T13:27:38.835Z,12.87
2019-03-23T13:30:10.830Z,12.80
2019-03-23T13:32:39.690Z,16.90
2019-03-23T13:35:08.740Z,12.90
2019-03-23T13:37:37.637Z,14.90
2019-03-23T13:40:09.543Z,17.57
2019-03-23T13:42:38.384Z,16.63
2019-03-23T13:45:09.589Z,17.87
2019-03-23T13:47:39.325Z,18.67
2019-03-23T13:50:10.573Z,13.37
2019-03-23T13:52:39.461Z,12.10
2019-03-23T13:55:09.869Z,11.40
2019-03-23T13:57:38.743Z,12.60
2019-03-23T14:00:08.455Z,15.13
2019-03-23T14:02:37.296Z,14.90
2019-03-23T14:05:15.732Z,14.23
2019-03-23T14:07:36.908Z,12.57
2019-03-23T14:10:06.567Z,15.10
2019-03-23T14:12:35.463Z,14.90
2019-03-23T14:15:05.775Z,12.23
2019-03-23T14:17:34.643Z,15.72
2019-03-23T14:20:04.906Z,13.47
2019-03-23T14:22:33.802Z,16.07
2019-03-23T14:25:02.646Z,14.83
2019-03-23T14:27:31.499Z,11.63
2019-03-23T14:30:00.418Z,14.70
2019-03-23T14:32:29.278Z,13.63
2019-03-23T14:34:58.124Z,12.83
2019-03-23T14:37:27.025Z,13.57
2019-03-23T14:39:55.872Z,13.47
2019-03-23T14:42:24.736Z,15.20
2019-03-23T14:44:53.637Z,13.97
2019-03-23T14:47:22.491Z,17.07
2019-03-23T14:49:51.348Z,16.87
2019-03-23T14:52:20.247Z,17.07
2019-03-23T14:54:49.085Z,16.17
2019-03-23T14:57:17.949Z,15.87
2019-03-23T14:59:46.831Z,15.27
2019-03-23T15:02:15.686Z,16.47
2019-03-23T15:04:44.574Z,17.43
2019-03-23T15:07:13.483Z,18.57
2019-03-23T15:09:42.334Z,15.70
2019-03-23T15:12:14.949Z,18.07
2019-03-23T15:14:41.760Z,17.37
2019-03-23T15:17:10.619Z,23.40
2019-03-23T15:19:39.479Z,19.07
2019-03-23T15:22:08.361Z,17.40
2019-03-23T15:24:37.162Z,17.13
2019-03-23T15:27:05.994Z,19.17
2019-03-23T15:29:34.874Z,19.30
2019-03-23T15:32:03.733Z,20.80
2019-03-23T15:34:32.698Z,19.37
2019-03-23T15:37:01.627Z,18.30
2019-03-23T15:39:30.490Z,18.53
2019-03-23T15:41:59.332Z,18.23
2019-03-23T15:44:28.247Z,19.60
2019-03-23T15:46:57.081Z,19.90
2019-03-23T15:49:25.950Z,22.27
2019-03-23T15:51:54.849Z,17.00
2019-03-23T15:54:23.714Z,19.37
2019-03-23T15:56:52.579Z,22.37
2019-03-23T15:59:21.481Z,15.53
2019-03-23T16:01:50.334Z,17.93
2019-03-23T16:04:19.184Z,18.00
2019-03-23T16:06:48.104Z,22.03
2019-03-23T16:09:16.953Z,22.63
2019-03-23T16:11:45.796Z,25.07
2019-03-23T16:14:14.711Z,28.10
2019-03-23T16:16:43.579Z,21.13
2019-03-23T16:19:12.412Z,24.83
2019-03-23T16:21:41.386Z,26.03
2019-03-23T16:24:10.259Z,30.33
2019-03-23T16:26:39.117Z,23.90
2019-03-23T16:29:09.601Z,20.87
2019-03-23T16:31:38.679Z,19.83
2019-03-23T16:34:07.532Z,22.30
2019-03-23T16:36:36.433Z,22.50
2019-03-23T16:39:06.802Z,20.43
2019-03-23T16:41:35.665Z,23.20
2019-03-23T16:44:04.794Z,17.00
2019-03-23T16:46:33.647Z,23.00
2019-03-23T16:49:02.509Z,23.00
2019-03-23T16:51:31.420Z,18.67
2019-03-23T16:54:00.294Z,17.50
2019-03-23T16:56:29.136Z,18.13
2019-03-23T16:58:58.128Z,21.53
2019-03-23T17:01:27.028Z,18.80
2019-03-23T17:03:55.893Z,26.03
2019-03-23T17:06:24.829Z,31.67
2019-03-23T17:08:53.678Z,27.23
2019-03-23T17:11:22.560Z,28.90
2019-03-23T17:13:51.458Z,33.60
2019-03-23T17:16:20.336Z,53.93
2019-03-23T17:18:49.221Z,146.03
2019-03-23T17:21:18.142Z,140.93
2019-03-23T17:23:46.995Z,158.83
2019-03-23T17:26:15.867Z,148.70
2019-03-23T17:28:44.918Z,145.40
2019-03-23T17:31:13.780Z,141.20
2019-03-23T17:33:42.649Z,171.10
2019-03-23T17:36:11.536Z,168.43
2019-03-23T17:38:40.399Z,177.47
2019-03-23T17:41:10.411Z,266.83
2019-03-23T17:43:40.809Z,260.47
2019-03-23T17:46:09.950Z,193.50
2019-03-23T17:48:38.805Z,176.00
2019-03-23T17:51:07.750Z,187.53
2019-03-23T17:53:36.604Z,182.57
2019-03-23T17:56:06.472Z,194.93
2019-03-23T17:58:35.564Z,232.13
2019-03-23T18:01:04.933Z,253.27
2019-03-23T18:03:33.814Z,267.47
2019-03-23T18:06:02.727Z,293.03
2019-03-23T18:08:31.570Z,302.43
2019-03-23T18:11:00.445Z,376.17
2019-03-23T18:13:29.479Z,397.60
2019-03-23T18:15:58.361Z,400.00
2019-03-23T18:18:27.252Z,408.27
2019-03-23T18:20:56.194Z,388.93
2019-03-23T18:23:25.043Z,309.70
2019-03-23T18:25:53.936Z,274.73
2019-03-23T18:28:22.876Z,240.60
2019-03-23T18:30:51.727Z,235.83
2019-03-23T18:33:20.592Z,300.57
2019-03-23T18:35:49.550Z,283.23
2019-03-23T18:38:18.392Z,288.83
2019-03-23T18:40:47.264Z,237.57
2019-03-23T18:43:26.696Z,227.23
2019-03-23T18:45:46.694Z,226.87
2019-03-23T18:48:15.570Z,335.83
2019-03-23T18:50:44.476Z,317.23
2019-03-23T18:53:13.291Z,315.30
2019-03-23T18:55:42.110Z,273.83
2019-03-23T18:58:11.132Z,229.53
2019-03-23T19:00:42.015Z,211.93
2019-03-23T19:03:11.071Z,213.33
2019-03-23T19:05:39.978Z,247.33
2019-03-23T19:08:09.160Z,265.57
2019-03-23T19:10:38.001Z,231.80
2019-03-23T19:13:06.898Z,195.70
2019-03-23T19:15:35.755Z,219.67
2019-03-23T19:18:05.043Z,230.90
2019-03-23T19:20:34.184Z,219.37
2019-03-23T19:23:04.070Z,222.60
2019-03-23T19:25:32.936Z,233.57
2019-03-23T19:28:01.854Z,243.87
2019-03-23T19:30:30.719Z,294.93
2019-03-23T19:32:59.578Z,263.47
2019-03-23T19:35:28.495Z,263.17
2019-03-23T19:37:57.967Z,235.20
2019-03-23T19:40:29.198Z,231.53
2019-03-23T19:42:59.644Z,260.77
2019-03-23T19:45:28.750Z,274.87
2019-03-23T19:47:57.623Z,287.70
2019-03-23T19:50:26.524Z,258.67
2019-03-23T19:52:55.376Z,325.87
2019-03-23T19:55:24.249Z,371.87
2019-03-23T19:57:54.775Z,422.07
2019-03-23T20:00:24.151Z,405.67
2019-03-23T20:02:53.014Z,454.23
2019-03-23T20:05:23.995Z,357.53
2019-03-23T20:07:52.843Z,272.87
2019-03-23T20:10:21.699Z,268.10
2019-03-23T20:12:50.601Z,226.13
2019-03-23T20:15:19.458Z,212.60
2019-03-23T20:17:48.366Z,246.43
2019-03-23T20:20:17.477Z,286.40
2019-03-23T20:22:46.339Z,279.37
2019-03-23T20:25:16.171Z,330.50
2019-03-23T20:27:45.181Z,302.50
2019-03-23T20:30:15.133Z,296.70
2019-03-23T20:32:43.979Z,278.27
2019-03-23T20:35:12.885Z,274.87
2019-03-23T20:37:41.752Z,284.27
2019-03-23T20:40:13.298Z,311.37
2019-03-23T20:42:43.757Z,393.77
2019-03-23T20:45:13.924Z,367.63
2019-03-23T20:47:42.774Z,302.57
2019-03-23T20:50:11.915Z,225.97
2019-03-23T20:52:41.762Z,247.03
2019-03-23T20:55:30.626Z,228.33
2019-03-23T20:57:59.776Z,214.73
2019-03-23T21:00:28.695Z,234.50
2019-03-23T21:03:01.344Z,232.57
2019-03-23T21:05:34.306Z,281.20
2019-03-23T21:08:01.298Z,273.23
2019-03-23T21:10:30.443Z,240.23
2019-03-23T21:12:59.308Z,212.13
2019-03-23T21:15:28.158Z,205.40
2019-03-23T21:17:57.098Z,204.13
2019-03-23T21:20:25.962Z,235.07
2019-03-23T21:22:54.827Z,251.83
2019-03-23T21:25:25.214Z,306.00
2019-03-23T21:27:55.020Z,252.97
2019-03-23T21:30:24.075Z,233.43
2019-03-23T21:32:52.996Z,212.03
2019-03-23T21:35:21.838Z,221.27
2019-03-23T21:37:50.698Z,167.73
2019-03-23T21:40:19.615Z,175.57
2019-03-23T21:42:48.471Z,161.07
2019-03-23T21:45:17.312Z,158.73
2019-03-23T21:47:46.207Z,166.73
2019-03-23T21:50:15.270Z,159.60
2019-03-23T21:52:44.135Z,173.37
2019-03-23T21:55:13.628Z,171.60
2019-03-23T21:57:42.477Z,171.57
2019-03-23T22:00:11.564Z,156.83
2019-03-23T22:02:40.433Z,157.07
2019-03-23T22:05:09.477Z,180.33
2019-03-23T22:07:38.326Z,181.13
2019-03-23T22:10:08.138Z,183.67
2019-03-23T22:12:37.000Z,171.80
2019-03-23T22:15:09.153Z,169.47
2019-03-23T22:17:38.093Z,159.37
2019-03-23T22:20:08.157Z,154.33
2019-03-23T22:22:37.028Z,152.93
2019-03-23T22:25:08.057Z,157.53
2019-03-23T22:27:38.308Z,161.90
2019-03-23T22:30:14.576Z,160.43
2019-03-23T22:32:43.494Z,169.70
2019-03-23T22:35:13.526Z,172.27
2019-03-23T22:37:42.469Z,172.57
2019-03-23T22:40:12.518Z,177.90
2019-03-23T22:42:41.379Z,153.77
2019-03-23T22:45:10.683Z,162.70
2019-03-23T22:47:39.532Z,177.60
2019-03-23T22:50:08.976Z,189.73
2019-03-23T22:52:37.874Z,185.13
2019-03-23T22:55:08.324Z,189.23
2019-03-23T22:57:37.179Z,189.30
2019-03-23T23:00:13.704Z,186.43
2019-03-23T23:02:42.564Z,192.73
2019-03-23T23:05:11.433Z,160.87
2019-03-23T23:07:40.362Z,162.53
2019-03-23T23:10:09.337Z,183.83
2019-03-23T23:12:38.184Z,179.70
2019-03-23T23:15:08.647Z,129.50
2019-03-23T23:17:37.503Z,131.03
2019-03-23T23:20:09.608Z,125.20
2019-03-23T23:22:42.964Z,127.97
2019-03-23T23:25:11.911Z,133.47
2019-03-23T23:27:40.756Z,134.10
2019-03-23T23:30:10.943Z,138.47
2019-03-23T23:32:39.828Z,138.33
2019-03-23T23:35:09.691Z,145.10
2019-03-23T23:37:38.709Z,133.83
2019-03-23T23:40:07.750Z,130.47
2019-03-23T23:42:39.161Z,142.47
2019-03-23T23:45:15.671Z,156.47
2019-03-23T23:47:44.810Z,144.47
2019-03-23T23:50:13.674Z,160.43
2019-03-23T23:52:42.578Z,182.73
2019-03-23T23:55:11.539Z,171.20
2019-03-23T23:57:40.405Z,168.63
